Time;durP1;ratioP1;P1;durP2;ratioP2;P2;SDS_P1;SDS_P2;PMS_P1;PMS_P2;Temp;Humidity;BMP_temperature;BMP_pressure;BME280_temperature;BME280_humidity;BME280_pressure;Samples;Min_cycle;Max_cycle;Signal;HPM_P1;HPM_P2
2022/06/22 00:00:52;;;;;;;12.37;7.70;;;;;;;16.48;59.68;101026.94;5039979;28;20421;-69
2022/06/22 00:03:18;;;;;;;10.30;7.33;;;;;;;16.29;60.08;101023.59;5053058;28;20603;-70
2022/06/22 00:05:47;;;;;;;7.50;6.87;;;;;;;16.18;60.65;101025.44;5059952;28;20438;-71
2022/06/22 00:08:16;;;;;;;8.67;6.90;;;;;;;16.48;60.60;101023.41;5060918;28;20387;-70
2022/06/22 00:11:04;;;;;;;8.23;7.43;;;;;;;16.35;60.31;101014.78;5059719;28;20430;-70
2022/06/22 00:13:31;;;;;;;10.43;8.30;;;;;;;15.92;61.33;101026.53;5059192;28;20457;-69
2022/06/22 00:16:00;;;;;;;8.67;7.73;;;;;;;15.85;62.21;101024.84;5059178;28;20470;-71
2022/06/22 00:18:31;;;;;;;10.50;7.83;;;;;;;15.75;62.75;101028.38;5059902;28;20464;-70
2022/06/22 00:21:02;;;;;;;8.50;7.70;;;;;;;15.97;62.15;101035.28;5059251;28;20391;-71
2022/06/22 00:23:40;;;;;;;9.80;7.33;;;;;;;16.06;62.13;101034.34;5059055;28;20714;-71
2022/06/22 00:26:31;;;;;;;14.07;9.53;;;;;;;16.16;62.04;101029.88;5043525;28;20869;-70
2022/06/22 00:29:09;;;;;;;9.20;7.70;;;;;;;16.20;62.20;101034.22;5053323;28;20395;-70
2022/06/22 00:31:41;;;;;;;8.30;7.60;;;;;;;16.00;62.11;101034.38;5060086;28;20418;-71
2022/06/22 00:34:09;;;;;;;12.53;8.10;;;;;;;16.08;62.60;101037.81;5059319;28;20399;-70
2022/06/22 00:36:43;;;;;;;9.30;8.07;;;;;;;15.79;63.20;101038.00;5059968;28;20424;-70
2022/06/22 00:39:17;;;;;;;8.40;7.60;;;;;;;15.91;62.97;101032.72;5061289;28;20420;-71
2022/06/22 00:41:49;;;;;;;10.63;8.37;;;;;;;16.13;62.60;101022.00;5059624;28;20406;-70
2022/06/22 00:44:16;;;;;;;15.37;9.23;;;;;;;15.98;62.70;101023.03;5039755;28;20478;-70
2022/06/22 00:46:44;;;;;;;10.30;9.13;;;;;;;16.02;62.38;101022.09;5049129;28;20562;-70
2022/06/22 00:49:15;;;;;;;9.20;8.37;;;;;;;15.97;62.73;101026.53;5058993;28;20391;-71
2022/06/22 00:51:42;;;;;;;10.00;8.20;;;;;;;16.10;62.88;101022.91;5058923;28;20390;-70
2022/06/22 00:54:11;;;;;;;11.30;9.23;;;;;;;16.20;62.46;101014.94;5059057;28;20692;-70
2022/06/22 00:56:36;;;;;;;11.10;8.87;;;;;;;15.76;63.43;101020.53;5058829;28;20434;-70
2022/06/22 00:59:20;;;;;;;9.90;8.33;;;;;;;15.78;63.59;101017.88;5059501;28;20382;-71
2022/06/22 01:01:51;;;;;;;9.47;8.50;;;;;;;15.77;63.83;101016.97;5058916;28;20195;-71
2022/06/22 01:04:30;;;;;;;10.03;9.03;;;;;;;15.90;63.77;101012.56;5039194;28;20396;-70
2022/06/22 01:06:57;;;;;;;16.10;9.73;;;;;;;15.77;63.96;101016.97;5038665;28;20443;-70
2022/06/22 01:09:32;;;;;;;8.93;8.13;;;;;;;16.06;63.34;101010.66;5039045;28;20427;-70
2022/06/22 01:15:12;;;;;;;10.03;9.03;;;;;;;15.74;64.03;101006.50;5058294;28;20822;-70
2022/06/22 01:17:46;;;;;;;10.10;9.10;;;;;;;15.51;65.08;101013.69;5058087;28;20432;-70
2022/06/22 01:20:20;;;;;;;12.03;9.97;;;;;;;15.58;65.04;101015.38;5058501;28;20398;-70
2022/06/22 01:23:03;;;;;;;12.23;9.70;;;;;;;15.67;64.78;101007.44;5058401;28;20439;-70
2022/06/22 01:25:28;;;;;;;10.40;9.20;;;;;;;15.78;64.13;101015.25;5057830;28;20521;-71
2022/06/22 01:27:54;;;;;;;9.83;8.90;;;;;;;15.55;64.99;101021.53;5057717;28;20512;-70
2022/06/22 01:30:34;;;;;;;10.40;9.40;;;;;;;15.63;64.94;101032.00;5058703;28;20209;-70
2022/06/22 01:33:06;;;;;;;10.87;9.70;;;;;;;15.64;64.55;101028.47;5058504;28;20538;-71
2022/06/22 01:35:33;;;;;;;10.93;9.83;;;;;;;15.62;64.65;101027.63;5058735;28;20399;-70
2022/06/22 01:38:10;;;;;;;13.40;10.20;;;;;;;15.49;65.08;101024.19;5058741;28;20420;-69
2022/06/22 01:40:46;;;;;;;11.73;9.90;;;;;;;15.40;65.27;101019.00;5058656;28;20398;-70
2022/06/22 01:43:50;;;;;;;10.90;9.90;;;;;;;15.87;64.28;101014.31;5057119;28;20406;-70
2022/06/22 01:46:20;;;;;;;13.17;9.60;;;;;;;15.45;65.07;101020.72;5047264;28;20563;-70
2022/06/22 01:49:09;;;;;;;11.00;9.90;;;;;;;15.46;65.31;101029.47;5057871;28;20469;-70
2022/06/22 01:51:39;;;;;;;11.07;9.50;;;;;;;15.72;64.87;101025.78;5057196;28;20397;-70
2022/06/22 01:54:22;;;;;;;10.60;9.07;;;;;;;15.46;65.05;101013.69;5058413;28;20391;-71
2022/06/22 01:57:11;;;;;;;11.70;10.60;;;;;;;15.32;65.60;101013.78;5057440;28;20810;-70
2022/06/22 01:59:50;;;;;;;11.20;9.70;;;;;;;15.43;65.72;101018.97;5057815;28;20808;-70
2022/06/22 02:02:27;;;;;;;11.20;10.00;;;;;;;15.38;65.72;101026.00;5057732;28;20409;-70
2022/06/22 02:05:02;;;;;;;15.27;10.90;;;;;;;15.27;66.06;101018.19;5057329;28;20687;-70
2022/06/22 02:07:44;;;;;;;12.30;10.43;;;;;;;15.38;65.99;101031.25;5057991;28;20474;-70
2022/06/22 02:10:23;;;;;;;13.00;11.33;;;;;;;15.15;66.67;101025.25;5053223;28;20407;-71
2022/06/22 02:13:04;;;;;;;10.73;9.63;;;;;;;15.08;66.91;101020.91;5045805;28;20440;-70
2022/06/22 02:15:38;;;;;;;11.80;10.60;;;;;;;15.50;66.01;101020.69;5057905;28;20442;-70
2022/06/22 02:18:03;;;;;;;10.73;9.60;;;;;;;15.42;65.47;101018.09;5058039;28;20404;-70
2022/06/22 02:20:37;;;;;;;11.83;10.20;;;;;;;15.35;66.05;101018.16;5056856;28;20765;-71
2022/06/22 02:23:07;;;;;;;10.80;9.70;;;;;;;15.43;65.70;101017.22;5057511;28;20272;-71
2022/06/22 02:25:36;;;;;;;15.07;10.47;;;;;;;15.27;66.26;101018.19;5057157;28;20518;-71
2022/06/22 02:28:01;;;;;;;11.90;10.73;;;;;;;15.10;67.23;101028.75;5057875;28;20443;-71
2022/06/22 02:30:27;;;;;;;12.97;10.30;;;;;;;15.08;67.15;101015.66;5057951;28;20416;-71
2022/06/22 02:32:53;;;;;;;11.57;10.37;;;;;;;15.39;66.39;101002.34;5057438;28;20182;-71
2022/06/22 02:35:19;;;;;;;11.10;10.00;;;;;;;15.35;66.75;100998.00;5058288;28;20415;-71
2022/06/22 02:37:50;;;;;;;14.50;11.30;;;;;;;15.32;66.29;100998.03;5057722;28;20170;-71
2022/06/22 02:40:21;;;;;;;12.63;11.40;;;;;;;15.22;66.87;101001.56;5053724;28;20441;-70
2022/06/22 02:45:31;;;;;;;12.30;10.47;;;;;;;15.07;67.22;101003.41;5057348;28;20458;-70
2022/06/22 02:48:00;;;;;;;14.40;11.10;;;;;;;14.94;67.72;100997.34;5056995;28;20506;-70
2022/06/22 02:50:51;;;;;;;11.57;10.40;;;;;;;15.04;67.63;100997.31;5057776;28;20408;-71
2022/06/22 02:53:33;;;;;;;12.37;11.07;;;;;;;15.18;67.41;101003.38;5056782;28;20492;-71
2022/06/22 02:56:00;;;;;;;12.43;11.13;;;;;;;15.11;67.01;100999.91;5056643;28;20436;-71
2022/06/22 02:58:34;;;;;;;12.87;11.50;;;;;;;15.14;67.15;100989.38;5056750;28;20696;-71
2022/06/22 03:01:12;;;;;;;14.93;11.43;;;;;;;15.01;67.72;100982.44;5057519;28;20391;-70
2022/06/22 03:03:38;;;;;;;13.43;11.87;;;;;;;14.96;67.99;100979.84;5056769;28;20447;-70
2022/06/22 03:06:04;;;;;;;13.03;11.40;;;;;;;15.15;67.37;100982.34;5057186;28;20402;-71
2022/06/22 03:08:29;;;;;;;12.27;10.93;;;;;;;15.23;67.25;100987.56;5056806;28;20394;-71
2022/06/22 03:11:03;;;;;;;13.80;11.40;;;;;;;15.20;67.19;100985.84;5056877;28;20178;-71
2022/06/22 03:13:39;;;;;;;13.07;11.20;;;;;;;15.12;67.44;100985.88;5057568;28;20172;-72
2022/06/22 03:16:07;;;;;;;13.23;11.80;;;;;;;14.94;67.78;100986.84;5056661;28;20859;-72
2022/06/22 03:18:34;;;;;;;13.53;12.20;;;;;;;14.85;68.14;100983.38;5057117;28;20430;-71
2022/06/22 03:21:02;;;;;;;14.23;12.17;;;;;;;14.92;68.28;100985.09;5056237;28;20405;-70
2022/06/22 03:23:34;;;;;;;13.47;12.17;;;;;;;14.98;68.24;100979.84;5056446;28;20801;-70
2022/06/22 03:26:12;;;;;;;12.80;10.93;;;;;;;15.08;68.06;100978.88;5057617;28;20394;-70
2022/06/22 03:28:43;;;;;;;13.03;11.57;;;;;;;15.49;67.34;100976.88;5056707;28;20477;-71
2022/06/22 03:31:13;;;;;;;14.20;12.70;;;;;;;14.89;67.77;100983.34;5044770;28;20599;-71
2022/06/22 03:33:45;;;;;;;14.60;13.10;;;;;;;14.91;68.06;100994.75;5061236;28;20432;-71
2022/06/22 03:36:29;;;;;;;14.00;12.60;;;;;;;15.69;66.01;100982.00;5060273;28;20414;-70
2022/06/22 03:39:05;;;;;;;13.20;11.37;;;;;;;16.60;62.76;100988.19;5059940;28;20450;-72
2022/06/22 03:41:32;;;;;;;11.93;10.83;;;;;;;17.41;59.92;100978.38;5061227;28;20419;-71
2022/06/22 03:44:01;;;;;;;11.40;10.13;;;;;;;18.43;57.07;100984.63;5059489;28;20456;-71
2022/06/22 03:46:42;;;;;;;10.50;9.47;;;;;;;19.45;53.93;100979.84;5060737;28;20458;-71
2022/06/22 03:49:15;;;;;;;10.00;9.17;;;;;;;19.59;53.51;100973.34;5060063;28;20398;-70
2022/06/22 03:51:46;;;;;;;12.60;8.87;;;;;;;19.71;51.47;100973.06;5059734;28;20402;-71
2022/06/22 03:54:19;;;;;;;20.00;9.90;;;;;;;20.02;51.38;100970.56;5060210;28;20409;-70
2022/06/22 03:56:49;;;;;;;10.17;9.17;;;;;;;20.29;50.24;100977.78;5059670;28;20418;-70
2022/06/22 03:59:15;;;;;;;9.70;8.80;;;;;;;20.31;49.86;100974.19;5060444;28;20397;-72
2022/06/22 04:01:41;;;;;;;10.20;9.20;;;;;;;20.50;50.00;100977.19;5059812;28;20478;-71
2022/06/22 04:04:07;;;;;;;10.60;9.60;;;;;;;20.01;51.13;100989.97;5060270;28;20181;-71
2022/06/22 04:06:37;;;;;;;10.43;8.40;;;;;;;19.80;51.37;100983.44;5039542;28;20737;-71
2022/06/22 04:09:11;;;;;;;10.40;8.17;;;;;;;20.19;51.17;100978.03;5039691;28;20431;-70
2022/06/22 04:11:54;;;;;;;10.53;8.90;;;;;;;21.51;47.62;100972.47;5042934;28;20478;-71
2022/06/22 04:14:36;;;;;;;10.27;8.30;;;;;;;22.12;45.52;100975.78;5059613;28;20496;-71
2022/06/22 04:17:05;;;;;;;9.53;8.53;;;;;;;21.25;48.42;100983.00;5059828;28;20408;-71
2022/06/22 04:19:44;;;;;;;9.53;8.63;;;;;;;21.61;46.94;100994.28;5060227;28;20806;-71
2022/06/22 04:22:14;;;;;;;10.13;8.27;;;;;;;21.58;47.02;100998.81;5059751;28;20425;-71
2022/06/22 04:24:53;;;;;;;13.20;8.90;;;;;;;21.80;46.90;100994.53;5058994;28;20459;-71
2022/06/22 04:27:24;;;;;;;11.10;8.00;;;;;;;23.33;43.08;100981.06;5059343;28;20918;-71
2022/06/22 04:29:55;;;;;;;10.73;8.17;;;;;;;23.46;42.94;100986.78;5059041;28;20789;-71
2022/06/22 04:32:31;;;;;;;10.97;7.43;;;;;;;22.78;43.36;100986.69;5060411;28;20640;-71
2022/06/22 04:35:04;;;;;;;12.17;8.33;;;;;;;23.35;43.05;100996.97;5059111;28;20432;-71
2022/06/22 04:37:31;;;;;;;7.50;6.50;;;;;;;23.00;43.71;100991.19;5059495;28;20408;-70
2022/06/22 04:40:19;;;;;;;7.50;6.30;;;;;;;24.01;41.24;100980.09;5059179;28;20408;-71
2022/06/22 04:42:45;;;;;;;7.47;6.53;;;;;;;23.96;41.87;100988.28;5058558;28;20427;-71
2022/06/22 04:45:28;;;;;;;9.30;6.60;;;;;;;24.40;40.62;100989.97;5058768;28;20883;-71
2022/06/22 04:47:57;;;;;;;8.37;7.40;;;;;;;22.74;44.37;101008.16;5059409;28;20463;-71
2022/06/22 04:50:23;;;;;;;9.63;6.33;;;;;;;23.16;43.64;101010.97;5059052;28;20404;-70
2022/06/22 04:52:50;;;;;;;8.33;6.00;;;;;;;23.50;42.76;101012.34;5059870;28;20416;-70
2022/06/22 04:55:18;;;;;;;12.10;6.30;;;;;;;23.40;42.52;101018.09;5059967;28;20178;-71
2022/06/22 04:57:45;;;;;;;8.40;6.13;;;;;;;23.63;42.63;101014.50;5059166;28;20518;-70
2022/06/22 05:00:18;;;;;;;17.13;6.83;;;;;;;23.47;42.41;101017.75;5058900;28;20671;-70
2022/06/22 05:02:45;;;;;;;6.17;5.17;;;;;;;23.89;42.15;101016.09;5059109;28;20482;-70
2022/06/22 05:05:23;;;;;;;6.40;5.43;;;;;;;23.80;41.84;101014.69;5058633;28;20466;-70
2022/06/22 05:07:53;;;;;;;6.50;5.30;;;;;;;24.29;40.99;101011.75;5058496;28;20512;-70
2022/06/22 05:10:53;;;;;;;6.57;5.87;;;;;;;24.71;40.07;101012.63;5058410;28;20423;-70
2022/06/22 05:13:44;;;;;;;6.37;5.77;;;;;;;24.36;40.13;101004.34;5044300;28;20740;-71
2022/06/22 05:16:13;;;;;;;5.43;4.97;;;;;;;25.00;39.20;101013.06;5055704;28;20478;-71
2022/06/22 05:18:40;;;;;;;7.10;4.70;;;;;;;24.69;39.87;101014.47;5051195;28;20428;-70
2022/06/22 05:21:10;;;;;;;6.10;4.50;;;;;;;24.10;40.77;101029.44;5058073;28;20431;-70
2022/06/22 05:23:36;;;;;;;5.23;4.40;;;;;;;25.11;39.19;101024.09;5058308;28;20473;-69
2022/06/22 05:26:05;;;;;;;6.40;4.40;;;;;;;25.48;38.10;101030.38;5058379;28;20409;-71
2022/06/22 05:28:45;;;;;;;7.00;4.50;;;;;;;25.31;38.63;101024.97;5058476;28;20181;-70
2022/06/22 05:31:14;;;;;;;5.00;4.27;;;;;;;25.85;37.81;101014.34;5058155;28;20416;-69
2022/06/22 05:33:42;;;;;;;8.73;4.83;;;;;;;26.39;36.74;101008.97;5058705;28;20459;-70
2022/06/22 05:36:10;;;;;;;9.23;4.87;;;;;;;25.51;37.93;101014.22;5058811;28;20416;-70
2022/06/22 05:38:39;;;;;;;6.70;4.67;;;;;;;24.81;39.59;101005.91;5058681;28;20426;-71
2022/06/22 05:41:07;;;;;;;6.20;4.67;;;;;;;26.07;37.18;101003.47;5040399;28;20416;-70
2022/06/22 05:43:33;;;;;;;5.70;4.50;;;;;;;25.77;37.96;101006.72;5057730;28;20420;-70
2022/06/22 05:46:02;;;;;;;5.87;5.20;;;;;;;26.13;37.26;101008.50;5058084;28;20693;-73
2022/06/22 05:48:29;;;;;;;8.03;4.90;;;;;;;26.60;35.93;100996.25;5058246;28;20565;-73
2022/06/22 05:51:05;;;;;;;8.20;5.13;;;;;;;26.55;36.06;100988.47;5057586;28;20424;-74
2022/06/22 05:54:00;;;;;;;8.13;5.53;;;;;;;26.92;35.32;100980.28;5057425;28;20419;-73
2022/06/22 05:56:31;;;;;;;11.20;5.93;;;;;;;27.37;35.06;100973.34;5058099;28;20424;-72
2022/06/22 05:59:12;;;;;;;5.17;4.63;;;;;;;27.31;34.99;100975.47;5058119;28;20514;-70
2022/06/22 06:02:01;;;;;;;8.43;4.90;;;;;;;27.01;35.15;100968.22;5040643;28;20448;-70
2022/06/22 06:04:35;;;;;;;6.40;4.57;;;;;;;26.65;36.08;100977.28;5056933;28;20427;-71
2022/06/22 06:07:27;;;;;;;7.60;5.70;;;;;;;28.23;33.84;100964.72;5058935;28;20521;-70
2022/06/22 06:09:52;;;;;;;11.70;4.60;;;;;;;27.15;35.63;100954.06;5039462;28;20510;-70
2022/06/22 06:12:22;;;;;;;6.70;4.60;;;;;;;28.72;32.73;100954.59;5055572;28;20644;-69
2022/06/22 06:14:52;;;;;;;9.27;5.30;;;;;;;27.61;34.68;100950.56;5057403;28;20221;-71
2022/06/22 06:17:27;;;;;;;7.33;5.23;;;;;;;27.82;34.50;100953.78;5056829;28;20438;-70
2022/06/22 06:19:54;;;;;;;9.10;4.67;;;;;;;29.37;32.46;100953.13;5053564;28;20635;-72
2022/06/22 06:22:22;;;;;;;8.73;4.43;;;;;;;27.64;34.92;100959.28;5047723;28;20510;-73
2022/06/22 06:27:40;;;;;;;8.83;4.67;;;;;;;29.28;31.91;100954.63;5053486;28;20459;-70
2022/06/22 06:30:26;;;;;;;6.10;4.47;;;;;;;27.84;33.77;100967.97;5053221;28;20689;-71
2022/06/22 06:32:54;;;;;;;8.27;4.60;;;;;;;27.05;35.79;100972.47;5042741;28;20540;-71
2022/06/22 06:35:35;;;;;;;7.03;4.70;;;;;;;28.79;32.79;100966.66;5054196;28;20487;-71
2022/06/22 06:38:18;;;;;;;6.07;4.50;;;;;;;28.42;33.02;100966.25;5050211;28;20814;-72
2022/06/22 06:40:49;;;;;;;6.03;4.80;;;;;;;27.12;35.46;100972.97;5051140;28;20452;-70
2022/06/22 06:43:39;;;;;;;7.53;5.20;;;;;;;29.97;31.42;100964.38;5030013;28;20436;-71
2022/06/22 06:46:26;;;;;;;5.53;4.93;;;;;;;28.97;33.03;100964.63;5041979;28;20444;-71
2022/06/22 06:49:00;;;;;;;7.53;5.53;;;;;;;28.48;33.31;100963.22;5028287;28;20509;-71
2022/06/22 06:51:28;;;;;;;7.20;5.40;;;;;;;28.31;33.64;100964.25;5037167;28;20518;-74
2022/06/22 06:54:15;;;;;;;7.70;5.10;;;;;;;28.10;34.10;100973.59;5049052;28;20492;-70
2022/06/22 06:56:47;;;;;;;7.43;4.97;;;;;;;29.10;32.58;100974.56;5054916;28;20534;-72
2022/06/22 06:59:19;;;;;;;7.73;5.27;;;;;;;27.56;35.10;100974.94;5052379;28;20483;-71
2022/06/22 07:01:46;;;;;;;8.20;4.87;;;;;;;29.26;32.25;100969.94;5049515;28;20431;-72
2022/06/22 07:04:17;;;;;;;5.50;4.97;;;;;;;28.65;33.61;100974.75;5055740;28;20481;-71
2022/06/22 07:06:43;;;;;;;7.80;5.50;;;;;;;28.60;33.46;100985.69;5057318;28;20592;-72
2022/06/22 07:09:17;;;;;;;6.50;5.33;;;;;;;28.56;33.61;100995.78;5059379;28;20431;-72
2022/06/22 07:11:56;;;;;;;6.47;5.03;;;;;;;29.20;32.64;101003.41;5043649;28;20432;-75
2022/06/22 07:14:30;;;;;;;7.00;4.90;;;;;;;29.24;32.74;100999.56;5060536;28;20720;-72
2022/06/22 07:17:01;;;;;;;5.60;4.83;;;;;;;28.52;33.82;101002.28;5032347;28;20459;-71
2022/06/22 07:19:32;;;;;;;6.43;4.70;;;;;;;28.85;33.05;101008.34;5019002;28;20761;-74
2022/06/22 07:22:28;;;;;;;6.97;5.00;;;;;;;28.16;34.21;101006.25;5006750;28;20449;-74
2022/06/22 07:25:00;;;;;;;5.90;5.07;;;;;;;28.40;34.00;101013.75;5017768;28;20425;-72
2022/06/22 07:27:43;;;;;;;10.20;6.20;;;;;;;30.04;31.45;101003.31;5042861;28;20449;-72
2022/06/22 07:30:34;;;;;;;7.67;5.23;;;;;;;29.69;31.97;101015.44;5037798;28;20456;-71
2022/06/22 07:33:09;;;;;;;7.67;5.47;;;;;;;28.92;32.92;101011.53;5013740;28;20511;-70
2022/06/22 07:35:44;;;;;;;7.27;5.40;;;;;;;28.68;33.08;101017.44;5022829;28;20428;-72
2022/06/22 07:38:45;;;;;;;10.20;5.37;;;;;;;29.43;32.28;100993.03;5024182;28;20427;-71
2022/06/22 07:41:19;;;;;;;5.80;4.70;;;;;;;29.05;32.38;100993.63;5019694;28;20448;-71
2022/06/22 07:43:56;;;;;;;5.80;4.67;;;;;;;29.22;33.02;100995.25;5033930;28;20468;-71
2022/06/22 07:46:33;;;;;;;7.20;5.30;;;;;;;30.76;30.67;100989.34;5022201;28;20747;-72
2022/06/22 07:49:08;;;;;;;5.70;4.40;;;;;;;29.62;31.89;100983.72;5038533;28;20470;-70
2022/06/22 07:51:35;;;;;;;6.53;4.90;;;;;;;30.26;31.34;100983.88;5020715;28;20447;-70
2022/06/22 07:54:10;;;;;;;5.63;4.73;;;;;;;29.17;32.96;100982.13;5021694;28;20525;-73
2022/06/22 07:56:46;;;;;;;6.30;4.60;;;;;;;29.97;31.44;100991.25;5002281;28;20503;-73
2022/06/22 07:59:16;;;;;;;6.07;4.30;;;;;;;29.65;31.62;100983.53;5003727;28;20409;-72
2022/06/22 08:01:43;;;;;;;7.40;4.80;;;;;;;30.46;30.53;100984.31;5032127;28;20452;-71
2022/06/22 08:04:18;;;;;;;8.97;5.10;;;;;;;30.67;31.07;100987.31;5026439;28;20475;-71
2022/06/22 08:06:59;;;;;;;7.10;4.80;;;;;;;31.14;30.00;100992.97;5022803;28;20486;-70
2022/06/22 08:09:49;;;;;;;6.40;5.27;;;;;;;28.04;33.98;100991.78;5040493;28;20504;-69
2022/06/22 08:12:20;;;;;;;7.47;4.93;;;;;;;28.92;33.25;100988.22;5038818;28;20420;-71
2022/06/22 08:14:49;;;;;;;10.43;5.40;;;;;;;29.62;31.92;100992.66;5045141;28;20464;-72
2022/06/22 08:17:20;;;;;;;7.27;5.20;;;;;;;29.39;32.23;100991.50;5058649;28;20424;-72
2022/06/22 08:19:46;;;;;;;6.73;4.80;;;;;;;30.84;30.29;100984.28;5057095;28;20767;-74
2022/06/22 08:22:12;;;;;;;9.33;5.30;;;;;;;30.17;30.63;100995.25;5066099;28;20426;-68
2022/06/22 08:24:41;;;;;;;5.10;4.43;;;;;;;30.00;31.57;100988.34;5064373;28;20222;-70
2022/06/22 08:27:09;;;;;;;5.00;4.50;;;;;;;29.24;32.16;100985.25;5051130;28;20484;-70
2022/06/22 08:29:35;;;;;;;9.57;4.43;;;;;;;28.48;33.34;100990.03;5050785;28;20437;-70
2022/06/22 08:32:13;;;;;;;5.50;4.90;;;;;;;29.06;32.75;100995.38;5039205;28;20429;-71
2022/06/22 08:34:43;;;;;;;7.37;5.37;;;;;;;29.49;32.31;100997.97;5039345;28;20415;-72
2022/06/22 08:37:36;;;;;;;8.23;5.33;;;;;;;29.11;32.99;100995.09;5039157;28;20823;-70
2022/06/22 08:40:11;;;;;;;6.47;5.10;;;;;;;28.28;34.50;101003.78;5035257;28;20421;-70
2022/06/22 08:42:53;;;;;;;6.23;5.03;;;;;;;27.89;33.67;100993.53;5039191;28;20405;-70
2022/06/22 08:45:28;;;;;;;7.50;4.73;;;;;;;28.90;33.15;100990.13;5039282;28;20413;-71
2022/06/22 08:48:12;;;;;;;8.80;5.10;;;;;;;30.19;31.09;100991.50;5039593;28;21174;-71
2022/06/22 08:50:47;;;;;;;5.67;4.80;;;;;;;29.83;31.61;100990.34;5058221;28;20515;-71
2022/06/22 08:53:44;;;;;;;7.13;5.00;;;;;;;30.38;30.61;100983.00;5058119;28;20714;-70
2022/06/22 08:56:46;;;;;;;7.73;5.00;;;;;;;30.96;30.14;101000.50;5053215;28;20511;-70
2022/06/22 08:59:24;;;;;;;6.30;5.00;;;;;;;29.70;31.30;101000.19;5057946;28;20427;-69
2022/06/22 09:01:55;;;;;;;5.70;4.70;;;;;;;27.37;34.05;101012.63;5060621;28;20437;-68
2022/06/22 09:04:44;;;;;;;8.73;5.00;;;;;;;26.98;35.11;101005.84;5059369;28;20680;-70
2022/06/22 09:07:35;;;;;;;6.30;5.10;;;;;;;29.31;31.41;100994.69;5046463;28;20479;-71
2022/06/22 09:10:22;;;;;;;9.40;5.27;;;;;;;28.08;32.37;101007.66;5038456;28;20429;-72
2022/06/22 09:12:59;;;;;;;8.40;5.30;;;;;;;28.00;33.22;101010.78;5050980;28;20873;-71
2022/06/22 09:15:35;;;;;;;6.10;5.30;;;;;;;27.49;34.24;101014.59;5053858;28;20475;-71
2022/06/22 09:18:22;;;;;;;8.90;5.50;;;;;;;26.83;35.56;101021.81;5052478;28;20880;-70
2022/06/22 09:21:00;;;;;;;8.00;5.10;;;;;;;25.93;37.38;101027.34;5070105;28;20442;-70
2022/06/22 09:23:32;;;;;;;6.07;5.23;;;;;;;26.07;36.37;101034.69;5058123;28;20415;-70
2022/06/22 09:26:00;;;;;;;8.43;5.37;;;;;;;26.43;35.94;101034.59;5058535;28;20420;-70
2022/06/22 09:28:39;;;;;;;5.97;5.23;;;;;;;29.36;31.75;101018.53;5067743;28;20839;-69
2022/06/22 09:31:29;;;;;;;5.50;4.80;;;;;;;29.64;29.95;101014.91;5057409;28;20458;-68
2022/06/22 09:34:16;;;;;;;5.43;4.90;;;;;;;31.13;28.36;101008.25;5057705;28;20409;-70
2022/06/22 09:37:01;;;;;;;8.87;5.57;;;;;;;30.53;29.53;101018.75;5058312;28;20701;-69
2022/06/22 09:40:03;;;;;;;7.00;4.53;;;;;;;29.13;31.28;101020.00;5038512;28;20471;-69
2022/06/22 09:42:48;;;;;;;9.10;5.20;;;;;;;28.33;32.04;101031.19;5038986;28;20867;-69
2022/06/22 09:45:35;;;;;;;5.57;4.77;;;;;;;29.96;28.86;101027.16;5053729;28;20912;-69
2022/06/22 09:48:24;;;;;;;9.53;5.53;;;;;;;29.26;30.37;101025.50;5050137;28;21103;-69
2022/06/22 09:51:06;;;;;;;6.20;4.93;;;;;;;27.05;34.24;101040.22;5057896;28;20495;-68
2022/06/22 09:53:48;;;;;;;5.90;5.30;;;;;;;27.80;32.61;101042.28;5056488;28;20427;-69
2022/06/22 09:56:35;;;;;;;6.27;5.67;;;;;;;28.95;31.47;101040.84;5057683;28;20412;-70
2022/06/22 09:59:10;;;;;;;5.97;5.20;;;;;;;28.88;31.55;101030.47;5058979;28;20428;-68
2022/06/22 10:01:57;;;;;;;6.77;5.27;;;;;;;29.46;30.35;101030.41;5058375;28;20655;-68
2022/06/22 10:04:41;;;;;;;5.30;4.80;;;;;;;30.41;28.90;101020.44;5057761;28;20428;-69
2022/06/22 10:07:25;;;;;;;5.97;5.03;;;;;;;30.03;29.62;101020.41;5057899;28;20466;-72
2022/06/22 10:10:05;;;;;;;8.20;5.17;;;;;;;30.37;28.53;101020.78;5057311;28;20420;-70
2022/06/22 10:12:43;;;;;;;5.10;4.70;;;;;;;30.40;28.26;101021.44;5057336;28;20416;-70
2022/06/22 10:15:17;;;;;;;5.47;4.47;;;;;;;30.76;27.77;101021.66;5056702;28;20547;-69
2022/06/22 10:18:09;;;;;;;5.33;4.30;;;;;;;30.80;27.84;101023.16;5056723;28;20508;-69
2022/06/22 10:20:53;;;;;;;8.80;4.83;;;;;;;31.30;27.07;101014.22;5057410;28;20455;-70
2022/06/22 10:23:46;;;;;;;5.60;4.50;;;;;;;30.59;27.66;101011.22;5054943;28;20522;-70
2022/06/22 10:26:17;;;;;;;7.00;4.83;;;;;;;31.03;27.56;101013.44;5054202;28;20451;-70
2022/06/22 10:29:01;;;;;;;7.00;5.20;;;;;;;31.20;27.16;101014.91;5053449;28;20460;-70
2022/06/22 10:32:04;;;;;;;8.60;4.90;;;;;;;27.27;32.78;101022.94;5057140;28;20469;-70
2022/06/22 10:34:41;;;;;;;6.70;5.47;;;;;;;27.31;33.39;101023.66;5056965;28;20814;-69
2022/06/22 10:37:27;;;;;;;5.43;4.93;;;;;;;28.43;31.66;101021.63;5040112;28;20420;-70
2022/06/22 10:40:08;;;;;;;6.03;4.83;;;;;;;29.76;29.70;101013.22;5054657;28;20432;-69
2022/06/22 10:45:24;;;;;;;8.00;4.77;;;;;;;28.69;30.51;101013.81;5056569;28;20750;-69
2022/06/22 10:47:59;;;;;;;5.67;4.60;;;;;;;28.90;30.43;101017.84;5053800;28;20472;-70
2022/06/22 10:50:37;;;;;;;5.20;4.47;;;;;;;29.80;27.69;101003.97;5049558;28;20206;-68
2022/06/22 10:53:23;;;;;;;5.83;4.47;;;;;;;29.56;27.77;101010.03;5052695;28;20504;-69
2022/06/22 10:56:18;;;;;;;4.37;3.97;;;;;;;29.33;28.70;101005.31;5041832;28;20507;-69
2022/06/22 10:58:59;;;;;;;5.57;4.70;;;;;;;30.09;25.82;101001.16;5042289;28;20408;-69
2022/06/22 11:01:44;;;;;;;10.50;4.50;;;;;;;28.49;27.09;100999.78;5056431;28;20499;-69
2022/06/22 11:04:19;;;;;;;7.40;4.57;;;;;;;29.15;28.49;100997.47;5055175;28;20857;-69
2022/06/22 11:07:06;;;;;;;6.23;4.90;;;;;;;29.94;27.80;101002.22;5049843;28;20779;-69
2022/06/22 11:09:56;;;;;;;5.33;4.83;;;;;;;27.52;30.33;101001.03;5051102;28;20696;-69
2022/06/22 11:12:27;;;;;;;5.70;4.27;;;;;;;30.24;27.76;100986.66;5071671;28;20446;-69
2022/06/22 11:15:30;;;;;;;5.77;4.70;;;;;;;30.12;27.71;100992.91;5055152;28;20475;-69
2022/06/22 11:18:08;;;;;;;4.80;4.30;;;;;;;29.60;28.42;100993.72;5053092;28;20542;-69
2022/06/22 11:21:00;;;;;;;6.80;4.73;;;;;;;28.67;28.86;100988.91;5057676;28;20426;-68
2022/06/22 11:24:05;;;;;;;4.87;4.17;;;;;;;28.70;28.21;100988.72;5026428;28;20458;-69
2022/06/22 11:32:36;;;;;;;5.40;4.90;;;;;;;28.54;28.95;101000.38;5039595;28;20412;-68
2022/06/22 11:35:52;;;;;;;6.20;4.23;;;;;;;28.35;28.52;100989.91;5056672;28;20416;-69
2022/06/22 11:38:51;;;;;;;5.10;4.70;;;;;;;27.52;28.41;101001.03;4977051;28;20496;-68
2022/06/22 11:41:41;;;;;;;5.40;5.00;;;;;;;28.46;27.84;100986.56;5054988;28;20436;-70
2022/06/22 11:44:25;;;;;;;4.77;4.37;;;;;;;27.26;28.52;100990.91;5056338;28;20436;-72
2022/06/22 11:46:54;;;;;;;5.10;4.60;;;;;;;27.19;30.39;100985.91;5055484;28;20525;-70
2022/06/22 11:49:25;;;;;;;5.77;4.60;;;;;;;28.04;27.96;100981.06;5056026;28;20428;-70
2022/06/22 11:52:09;;;;;;;6.33;4.63;;;;;;;27.73;29.05;100987.34;5037187;28;20665;-70
2022/06/22 11:54:53;;;;;;;5.73;4.33;;;;;;;27.28;29.80;100987.22;5040324;28;20417;-70
2022/06/22 11:57:31;;;;;;;6.57;4.50;;;;;;;27.35;29.94;100987.72;5040830;28;20405;-70
2022/06/22 12:00:27;;;;;;;6.73;4.60;;;;;;;27.94;30.00;100985.22;5040742;28;20412;-70
2022/06/22 12:03:29;;;;;;;4.63;3.93;;;;;;;27.97;28.70;100974.31;5040342;28;20397;-70
2022/06/22 12:06:22;;;;;;;6.70;4.50;;;;;;;27.74;28.58;100964.97;5056752;28;20461;-70
2022/06/22 12:08:54;;;;;;;9.20;4.70;;;;;;;28.22;28.77;100965.66;5040482;28;20460;-70
2022/06/22 12:11:48;;;;;;;5.40;4.33;;;;;;;27.94;28.35;100973.63;5040506;28;20409;-71
2022/06/22 12:17:28;;;;;;;6.07;4.70;;;;;;;26.71;30.50;100977.84;5039738;28;20420;-70
2022/06/22 12:19:59;;;;;;;4.90;4.50;;;;;;;27.83;29.80;100969.78;5040045;28;20428;-70
2022/06/22 12:22:46;;;;;;;7.17;4.70;;;;;;;27.23;30.92;100974.06;5039271;28;20439;-71
2022/06/22 12:25:31;;;;;;;5.13;4.40;;;;;;;27.42;29.48;100967.72;5040258;28;20503;-71